DWD Radarbild

   
[Quelle: ADDS]
METAR
EDLP 251420Z 30007KT 230V360 9999 BKN036 15/07 Q1017 =
EDLP 251100Z 2512/2612 29005KT 9999 BKN025 BECMG 2517/2520 20004KT BECMG 2604/2607 24009KT
TAF
EDLP 251100Z 2512/2612 29005KT 9999 BKN025 BECMG 2517/2520 20004KT BECMG 2604/2607 24009KT =
   
   

Meine WettercamWettercam aus Bielefeld Senne - Blickrichtung Süd-Ostjede Min. ein neues Bild

   
Moon phase
Phase:
Abnehmend

Mondphase:
60%

Alter:
21 Tage

Entfernung:
251,724 Km

Zeit:
16:47:13

Datum:
25-05-2019

   
<<  Mai 2019  >>
 Mo  Di  Mi  Do  Fr  Sa  So 
    1  2  3  4  5
  6  7  9101112
13141516171819
20212223242526
2728293031